Time;durP1;ratioP1;P1;durP2;ratioP2;P2;SDS_P1;SDS_P2;PMS_P1;PMS_P2;Temp;Humidity;BMP_temperature;BMP_pressure;BME280_temperature;BME280_humidity;BME280_pressure;Samples;Min_cycle;Max_cycle;Signal;HPM_P1;HPM_P2
2022/05/10 00:01:21;;;;;;;6.70;6.20;;;20.50;75.00;;;;;;4874017;29;20505;-83
2022/05/10 00:03:48;;;;;;;7.53;6.70;;;20.50;76.10;;;;;;4877664;29;20458;-81
2022/05/10 00:06:15;;;;;;;6.80;6.20;;;20.40;75.50;;;;;;4895938;29;20437;-82
2022/05/10 00:08:43;;;;;;;6.33;5.83;;;20.40;74.30;;;;;;4890123;29;20453;-85
2022/05/10 00:11:10;;;;;;;6.73;6.13;;;20.30;74.10;;;;;;4873107;29;20453;-80
2022/05/10 00:13:37;;;;;;;6.47;5.97;;;20.30;74.70;;;;;;4868159;29;20482;-82
2022/05/10 00:16:05;;;;;;;6.33;5.73;;;20.20;74.70;;;;;;4876960;29;20976;-81
2022/05/10 00:18:32;;;;;;;7.07;6.43;;;20.20;75.20;;;;;;4884272;29;20437;-80
2022/05/10 00:20:59;;;;;;;6.57;5.97;;;20.10;75.20;;;;;;4893657;29;20460;-82
2022/05/10 00:23:39;;;;;;;6.40;5.90;;;20.10;75.10;;;;;;4875892;29;20514;-81
2022/05/10 00:26:06;;;;;;;6.60;6.10;;;20.20;74.60;;;;;;4889271;29;20475;-82
2022/05/10 00:28:33;;;;;;;6.10;5.63;;;20.00;74.40;;;;;;4878415;29;20472;-81
2022/05/10 00:31:00;;;;;;;6.00;5.60;;;19.80;75.10;;;;;;4878298;29;20468;-83
2022/05/10 00:33:29;;;;;;;6.33;5.33;;;19.80;76.30;;;;;;4859212;29;20470;-81
2022/05/10 00:35:58;;;;;;;6.27;5.80;;;19.70;75.80;;;;;;4869888;29;20484;-82
2022/05/10 00:38:32;;;;;;;5.70;5.30;;;19.80;75.80;;;;;;4873280;29;20461;-81
2022/05/10 00:41:12;;;;;;;5.67;5.27;;;19.80;75.50;;;;;;4861301;29;20901;-82
2022/05/10 00:43:43;;;;;;;5.83;5.33;;;19.70;75.80;;;;;;4873681;29;20473;-83
2022/05/10 00:46:19;;;;;;;6.53;6.03;;;19.70;76.50;;;;;;4875595;29;20468;-84
2022/05/10 00:48:52;;;;;;;6.20;5.53;;;19.90;75.40;;;;;;4864501;29;20465;-82
2022/05/10 00:51:34;;;;;;;6.30;5.70;;;19.90;75.70;;;;;;4867507;29;20457;-84
2022/05/10 00:54:15;;;;;;;5.77;5.20;;;19.70;76.10;;;;;;4872290;29;20565;-83
2022/05/10 00:56:52;;;;;;;6.60;6.10;;;19.80;76.60;;;;;;4887476;29;20548;-85
2022/05/10 00:59:26;;;;;;;6.40;5.80;;;19.80;77.00;;;;;;4885919;29;20464;-82
2022/05/10 01:01:59;;;;;;;6.60;6.10;;;19.60;77.60;;;;;;4867199;29;20458;-82
2022/05/10 01:04:41;;;;;;;6.30;5.80;;;19.50;79.00;;;;;;4868486;29;20623;-85
2022/05/10 01:07:15;;;;;;;6.63;6.10;;;19.50;80.10;;;;;;4876255;29;20472;-81
2022/05/10 01:09:51;;;;;;;6.27;5.73;;;19.50;80.70;;;;;;4869654;29;20457;-84
2022/05/10 01:12:23;;;;;;;6.93;6.17;;;19.50;81.20;;;;;;4874454;29;20457;-80
2022/05/10 01:15:05;;;;;;;5.97;5.47;;;19.50;79.80;;;;;;4870312;29;20482;-84
2022/05/10 01:17:33;;;;;;;6.47;5.80;;;19.40;80.20;;;;;;4891381;29;20456;-83
2022/05/10 01:20:00;;;;;;;6.17;5.67;;;19.40;80.00;;;;;;4886971;29;20450;-80
2022/05/10 01:22:39;;;;;;;6.10;5.60;;;19.40;80.40;;;;;;4888369;29;20508;-84
2022/05/10 01:25:06;;;;;;;6.70;6.20;;;19.40;80.30;;;;;;4876804;29;20465;-82
2022/05/10 01:28:01;;;;;;;6.83;6.30;;;19.50;79.90;;;;;;4869583;29;20515;-82
2022/05/10 01:30:30;;;;;;;6.70;6.10;;;19.30;80.80;;;;;;4858759;29;20995;-84
2022/05/10 01:33:42;;;;;;;6.40;5.80;;;19.30;81.30;;;;;;4862262;29;20461;-84
2022/05/10 01:35:57;;;;;;;6.50;6.00;;;19.30;82.10;;;;;;4857696;29;20486;-84
2022/05/10 01:39:03;;;;;;;6.53;6.13;;;19.40;81.50;;;;;;4861174;29;20465;-83
2022/05/10 01:42:08;;;;;;;7.00;6.17;;;19.40;81.20;;;;;;4872611;29;20857;-83
2022/05/10 01:44:35;;;;;;;6.40;6.00;;;19.20;81.60;;;;;;4876777;29;20591;-82
2022/05/10 01:47:31;;;;;;;6.83;6.10;;;19.10;82.20;;;;;;4862548;29;20465;-82
2022/05/10 01:50:10;;;;;;;6.60;6.07;;;19.10;82.70;;;;;;4861005;29;20464;-81
2022/05/10 01:52:49;;;;;;;6.30;5.80;;;19.20;83.00;;;;;;4873120;29;20531;-81
2022/05/10 01:55:32;;;;;;;7.17;6.47;;;19.20;82.80;;;;;;4882686;29;20473;-84
2022/05/10 01:58:09;;;;;;;7.23;6.67;;;19.30;83.00;;;;;;4888608;29;20533;-85
2022/05/10 02:00:38;;;;;;;7.80;6.50;;;19.30;83.60;;;;;;4874245;29;20459;-83
2022/05/10 02:03:20;;;;;;;6.80;6.23;;;19.20;84.50;;;;;;4862179;29;20492;-82
2022/05/10 02:06:08;;;;;;;7.20;6.60;;;18.90;85.20;;;;;;4865647;29;20533;-82
2022/05/10 02:08:42;;;;;;;7.37;6.77;;;18.70;86.80;;;;;;4908926;29;20476;-85
2022/05/10 02:11:12;;;;;;;7.60;6.90;;;18.60;87.90;;;;;;4893539;29;20460;-82
2022/05/10 02:13:45;;;;;;;8.97;8.07;;;18.40;88.60;;;;;;4872034;29;20543;-84
2022/05/10 02:16:19;;;;;;;8.10;6.90;;;18.30;89.70;;;;;;4871211;29;20454;-82
2022/05/10 02:19:01;;;;;;;8.23;6.70;;;18.20;90.20;;;;;;4870705;29;20454;-81
2022/05/10 02:21:54;;;;;;;7.40;6.80;;;18.10;90.70;;;;;;4863702;29;20492;-82
2022/05/10 02:24:25;;;;;;;6.93;6.33;;;18.20;90.90;;;;;;4871441;29;20474;-81
2022/05/10 02:26:57;;;;;;;7.40;6.80;;;18.30;90.70;;;;;;4865142;29;20469;-82
2022/05/10 02:29:31;;;;;;;7.43;6.83;;;18.30;90.70;;;;;;4858981;29;20480;-80
2022/05/10 02:34:53;;;;;;;7.00;6.47;;;18.30;90.90;;;;;;4866668;29;20507;-83
2022/05/10 02:37:20;;;;;;;7.60;6.83;;;18.30;90.70;;;;;;4863222;29;20472;-82
2022/05/10 02:39:47;;;;;;;7.13;6.40;;;18.40;90.30;;;;;;4868403;29;20476;-82
2022/05/10 02:42:15;;;;;;;7.00;6.50;;;18.40;89.90;;;;;;4861262;29;20859;-82
2022/05/10 02:44:42;;;;;;;7.20;6.60;;;18.40;89.00;;;;;;4870960;29;20499;-83
2022/05/10 02:47:10;;;;;;;7.70;7.10;;;18.40;88.70;;;;;;4877988;29;20456;-82
2022/05/10 02:49:40;;;;;;;6.87;6.37;;;18.40;88.30;;;;;;4871509;29;20461;-85
2022/05/10 02:52:07;;;;;;;7.17;6.67;;;18.30;88.40;;;;;;4869116;29;20523;-83
2022/05/10 02:54:33;;;;;;;7.37;6.60;;;18.30;88.60;;;;;;4905863;29;20473;-81
2022/05/10 02:57:03;;;;;;;8.27;6.97;;;18.30;88.30;;;;;;4866169;29;20468;-82
2022/05/10 02:59:35;;;;;;;6.70;6.10;;;18.20;89.00;;;;;;4879195;29;20460;-82
2022/05/10 03:02:24;;;;;;;7.90;7.10;;;18.10;89.70;;;;;;4869042;29;20473;-81
2022/05/10 03:04:53;;;;;;;7.40;6.60;;;18.30;89.00;;;;;;4865953;29;20494;-81
2022/05/10 03:07:20;;;;;;;7.50;6.90;;;18.40;88.90;;;;;;4877630;29;20461;-81
2022/05/10 03:09:46;;;;;;;8.00;7.20;;;18.60;88.80;;;;;;4884981;29;20445;-82
2022/05/10 03:12:13;;;;;;;8.17;7.40;;;18.60;89.00;;;;;;5088650;23;20497;-83
2022/05/10 03:14:40;;;;;;;7.90;7.30;;;18.40;89.80;;;;;;4866249;29;20540;-82
2022/05/10 03:17:10;;;;;;;8.00;7.40;;;18.30;90.50;;;;;;4864055;29;20456;-84
2022/05/10 03:19:41;;;;;;;8.40;7.47;;;18.20;90.90;;;;;;4871043;29;20446;-84
2022/05/10 03:22:08;;;;;;;8.00;7.20;;;18.10;91.40;;;;;;4854955;29;20540;-83
2022/05/10 03:24:35;;;;;;;8.50;7.80;;;18.00;91.60;;;;;;4842904;29;20518;-83
2022/05/10 03:27:05;;;;;;;7.80;7.30;;;17.90;91.70;;;;;;4862848;29;20473;-84
2022/05/10 03:29:31;;;;;;;8.97;8.17;;;17.80;91.50;;;;;;4865709;29;20459;-85
2022/05/10 03:31:58;;;;;;;8.80;7.43;;;17.80;91.70;;;;;;4868633;29;20489;-84
2022/05/10 03:37:10;;;;;;;9.60;8.70;;;17.60;92.10;;;;;;4869183;29;20457;-85
2022/05/10 03:39:37;;;;;;;8.60;7.73;;;17.50;92.10;;;;;;4871832;29;20457;-84
2022/05/10 03:42:04;;;;;;;8.30;7.50;;;17.40;92.30;;;;;;4870650;29;20448;-84
2022/05/10 03:44:32;;;;;;;9.90;9.00;;;17.50;92.40;;;;;;4888767;29;20562;-83
2022/05/10 03:46:58;;;;;;;9.00;8.17;;;17.70;92.20;;;;;;4859149;29;21024;-84
2022/05/10 03:49:25;;;;;;;8.97;8.27;;;17.70;92.10;;;;;;4864256;29;20466;-81
2022/05/10 03:51:54;;;;;;;9.57;8.70;;;17.70;92.30;;;;;;4856416;29;20470;-81
2022/05/10 03:54:25;;;;;;;10.03;9.13;;;17.70;92.70;;;;;;4856121;29;20478;-82
2022/05/10 03:56:52;;;;;;;9.73;8.77;;;17.70;92.50;;;;;;4855935;29;20492;-84
2022/05/10 03:59:19;;;;;;;10.03;8.90;;;17.70;92.60;;;;;;4851936;29;20476;-82
2022/05/10 04:01:46;;;;;;;9.13;8.43;;;17.70;92.60;;;;;;4857979;29;20476;-82
2022/05/10 04:04:14;;;;;;;9.23;8.53;;;17.70;92.70;;;;;;4860787;29;20577;-83
2022/05/10 04:06:41;;;;;;;9.37;8.50;;;17.80;92.60;;;;;;4858370;29;20498;-83
2022/05/10 04:09:08;;;;;;;8.83;8.07;;;17.80;92.40;;;;;;4869446;29;20458;-85
2022/05/10 04:11:35;;;;;;;9.53;8.63;;;17.80;92.40;;;;;;4858733;29;20739;-84
2022/05/10 04:14:03;;;;;;;9.10;8.20;;;17.80;92.50;;;;;;4863750;29;20479;-85
2022/05/10 04:16:29;;;;;;;8.90;8.17;;;17.70;92.70;;;;;;4861124;29;20721;-84
2022/05/10 04:18:56;;;;;;;9.40;8.33;;;17.60;92.80;;;;;;4868626;29;20485;-85
2022/05/10 04:21:23;;;;;;;9.23;8.33;;;17.50;93.00;;;;;;4867402;29;20453;-86
2022/05/10 04:23:49;;;;;;;9.30;8.10;;;17.50;92.90;;;;;;4876651;29;20493;-85
2022/05/10 04:26:16;;;;;;;9.13;8.27;;;17.50;93.10;;;;;;4859575;29;20482;-81
2022/05/10 04:28:43;;;;;;;9.37;8.37;;;17.30;93.30;;;;;;4857179;29;20470;-81
2022/05/10 04:31:11;;;;;;;9.60;8.80;;;17.30;93.30;;;;;;4862950;29;20466;-84
2022/05/10 04:33:39;;;;;;;8.60;7.80;;;17.30;93.40;;;;;;4856964;29;20474;-83
2022/05/10 04:36:06;;;;;;;11.90;8.67;;;17.20;93.50;;;;;;4854348;29;20466;-87
2022/05/10 04:38:37;;;;;;;10.50;7.87;;;17.20;93.70;;;;;;4859523;29;20474;-85
2022/05/10 04:43:49;;;;;;;9.70;8.50;;;17.10;94.00;;;;;;4858385;29;20480;-84
2022/05/10 04:46:16;;;;;;;8.93;8.13;;;17.10;94.00;;;;;;4855719;29;20581;-82
2022/05/10 04:48:43;;;;;;;9.63;8.57;;;17.10;94.10;;;;;;4863349;29;20474;-84
2022/05/10 04:51:10;;;;;;;9.60;8.60;;;17.10;94.10;;;;;;4869644;29;20462;-85
2022/05/10 04:53:37;;;;;;;9.73;8.60;;;17.10;94.20;;;;;;4853602;29;20488;-84
2022/05/10 04:56:05;;;;;;;8.90;8.20;;;17.20;93.90;;;;;;4854615;29;20542;-85
2022/05/10 04:58:32;;;;;;;8.30;7.60;;;17.30;93.70;;;;;;4851049;29;20477;-83
2022/05/10 05:01:03;;;;;;;9.90;9.00;;;17.40;93.80;;;;;;4848738;29;20473;-83
2022/05/10 05:03:30;;;;;;;8.47;7.83;;;17.40;93.20;;;;;;4849256;29;20487;-82
2022/05/10 05:05:57;;;;;;;8.87;8.17;;;17.40;93.20;;;;;;4867258;29;20556;-83
2022/05/10 05:08:24;;;;;;;8.13;7.43;;;17.40;93.60;;;;;;4846840;29;20450;-83
2022/05/10 05:10:52;;;;;;;9.00;8.30;;;17.40;93.10;;;;;;4853284;29;20535;-82
2022/05/10 05:13:19;;;;;;;9.00;8.10;;;17.40;93.10;;;;;;4851212;29;21791;-85
2022/05/10 05:15:45;;;;;;;9.10;8.40;;;17.40;93.20;;;;;;4853683;29;20469;-82
2022/05/10 05:18:12;;;;;;;9.43;8.53;;;17.50;93.30;;;;;;4855680;29;20491;-86
2022/05/10 05:20:41;;;;;;;8.40;7.70;;;17.50;93.30;;;;;;4855853;29;20521;-83
2022/05/10 05:23:09;;;;;;;8.70;8.00;;;17.40;93.70;;;;;;4851383;29;20482;-83
2022/05/10 05:25:37;;;;;;;8.67;7.97;;;17.40;93.60;;;;;;4849804;29;20489;-84
2022/05/10 05:28:05;;;;;;;8.77;8.07;;;17.60;93.10;;;;;;4865148;29;21046;-83
2022/05/10 05:30:33;;;;;;;8.60;7.90;;;17.80;92.80;;;;;;4851608;29;20462;-81
2022/05/10 05:33:00;;;;;;;8.93;8.13;;;17.70;92.70;;;;;;4844296;29;20933;-84
2022/05/10 05:35:27;;;;;;;8.10;7.50;;;17.80;92.70;;;;;;4847018;29;20488;-83
2022/05/10 05:37:54;;;;;;;9.63;8.00;;;17.80;92.60;;;;;;4856139;29;20466;-83
2022/05/10 05:40:22;;;;;;;8.30;7.60;;;17.90;92.30;;;;;;4853525;29;20470;-83
2022/05/10 05:42:50;;;;;;;8.43;7.60;;;18.00;92.00;;;;;;4878126;29;20471;-83
2022/05/10 05:45:19;;;;;;;8.40;7.60;;;18.00;91.60;;;;;;4850111;29;20475;-82
2022/05/10 05:47:46;;;;;;;9.00;8.20;;;18.00;91.60;;;;;;4877481;29;20558;-83
2022/05/10 05:50:15;;;;;;;9.50;8.60;;;18.10;91.30;;;;;;4851876;29;21025;-83
2022/05/10 05:52:43;;;;;;;8.70;7.90;;;18.10;91.30;;;;;;4873324;29;20455;-81
2022/05/10 05:55:11;;;;;;;8.30;7.60;;;18.20;91.10;;;;;;4850557;29;20474;-83
2022/05/10 05:57:38;;;;;;;8.17;7.37;;;18.20;91.10;;;;;;4865020;29;20473;-84
2022/05/10 06:00:11;;;;;;;7.60;7.00;;;18.10;91.10;;;;;;4878991;29;20458;-82
2022/05/10 06:02:38;;;;;;;8.30;7.70;;;18.30;91.30;;;;;;4864679;29;20462;-82
2022/05/10 06:05:06;;;;;;;9.30;8.40;;;18.50;90.90;;;;;;4869466;29;20498;-83
2022/05/10 06:07:33;;;;;;;8.43;7.63;;;18.40;90.70;;;;;;4855447;29;20476;-81
2022/05/10 06:10:00;;;;;;;8.93;8.20;;;18.60;90.50;;;;;;4874676;29;20470;-84
2022/05/10 06:12:27;;;;;;;8.80;8.10;;;18.60;90.20;;;;;;4866891;29;20499;-82
2022/05/10 06:14:53;;;;;;;9.00;8.20;;;18.70;90.10;;;;;;4855020;29;20988;-83
2022/05/10 06:17:20;;;;;;;11.60;6.90;;;19.00;89.20;;;;;;4850360;29;20453;-85
2022/05/10 06:19:47;;;;;;;8.17;7.47;;;18.80;89.80;;;;;;4851587;29;20522;-82
2022/05/10 06:22:14;;;;;;;9.27;8.10;;;19.00;88.90;;;;;;4850360;29;20510;-82
2022/05/10 06:24:41;;;;;;;8.30;7.47;;;19.00;89.30;;;;;;4848880;29;20509;-83
2022/05/10 06:27:13;;;;;;;8.30;7.60;;;19.10;88.80;;;;;;4855910;29;20543;-83
2022/05/10 06:29:40;;;;;;;8.17;7.53;;;19.10;88.80;;;;;;4854779;29;20489;-82
2022/05/10 06:32:07;;;;;;;8.50;7.80;;;19.10;88.60;;;;;;4856110;29;20461;-84
2022/05/10 06:34:34;;;;;;;9.13;8.40;;;19.20;88.70;;;;;;4865498;29;20977;-84
2022/05/10 06:37:01;;;;;;;8.87;7.97;;;19.20;88.10;;;;;;4867483;29;20473;-84
2022/05/10 06:39:27;;;;;;;9.00;8.30;;;19.10;88.50;;;;;;4852048;29;20474;-82
2022/05/10 06:41:54;;;;;;;8.50;7.80;;;19.20;88.10;;;;;;4851399;29;20470;-83
2022/05/10 06:44:20;;;;;;;8.10;7.47;;;19.20;88.50;;;;;;4850744;29;20477;-81
2022/05/10 06:46:47;;;;;;;9.17;8.40;;;19.40;88.00;;;;;;4854670;29;20478;-87
2022/05/10 06:49:14;;;;;;;9.33;8.53;;;19.50;87.60;;;;;;4857931;29;20490;-83
2022/05/10 06:51:41;;;;;;;9.00;7.43;;;19.60;87.60;;;;;;4868183;29;20485;-83
2022/05/10 06:54:07;;;;;;;8.77;8.00;;;19.80;87.20;;;;;;4848083;29;20480;-84
2022/05/10 06:56:34;;;;;;;9.83;9.07;;;20.00;86.40;;;;;;4854608;29;20464;-84
2022/05/10 06:59:02;;;;;;;9.10;8.20;;;20.10;86.20;;;;;;4869169;29;20479;-83
2022/05/10 07:01:29;;;;;;;8.60;7.80;;;20.00;86.20;;;;;;4852054;29;20458;-83
2022/05/10 07:04:04;;;;;;;9.30;8.47;;;19.90;86.20;;;;;;4864813;29;20486;-83
2022/05/10 07:06:35;;;;;;;9.40;8.70;;;20.00;86.70;;;;;;4877518;29;20488;-84
2022/05/10 07:09:02;;;;;;;11.90;8.17;;;20.10;86.10;;;;;;4894801;29;20521;-85
2022/05/10 07:11:29;;;;;;;8.53;7.77;;;20.20;86.20;;;;;;4868086;29;20442;-86
2022/05/10 07:13:56;;;;;;;8.03;7.23;;;19.90;86.70;;;;;;4888276;29;20507;-83
2022/05/10 07:16:22;;;;;;;8.37;7.47;;;20.30;86.60;;;;;;4879504;29;20529;-83
2022/05/10 07:18:50;;;;;;;10.00;8.33;;;20.50;86.00;;;;;;4881008;29;20503;-84
2022/05/10 07:21:17;;;;;;;9.13;7.90;;;20.60;85.40;;;;;;4887082;29;20467;-82
2022/05/10 07:23:43;;;;;;;8.63;7.93;;;20.50;85.20;;;;;;4849188;29;20486;-80
2022/05/10 07:26:10;;;;;;;9.23;7.87;;;20.60;85.00;;;;;;4846256;29;20493;-83
2022/05/10 07:28:39;;;;;;;9.50;8.00;;;20.70;84.70;;;;;;4853008;29;20944;-84
2022/05/10 07:31:12;;;;;;;8.30;7.53;;;21.20;83.10;;;;;;4854863;29;20504;-84
2022/05/10 07:33:38;;;;;;;9.13;7.73;;;21.00;82.20;;;;;;4867361;29;20493;-83
2022/05/10 07:36:23;;;;;;;9.03;8.10;;;21.30;82.50;;;;;;4848344;29;20537;-85
2022/05/10 07:38:51;;;;;;;8.90;7.43;;;21.80;79.30;;;;;;4832013;29;20820;-86
2022/05/10 07:41:21;;;;;;;7.40;6.90;;;21.60;78.90;;;;;;4830731;29;20462;-84
2022/05/10 07:43:50;;;;;;;8.50;7.70;;;21.60;80.30;;;;;;4833186;29;20486;-84
2022/05/10 07:46:17;;;;;;;8.97;8.07;;;22.40;77.40;;;;;;4834177;29;20501;-85
2022/05/10 07:48:45;;;;;;;8.07;7.37;;;22.70;76.70;;;;;;4838889;29;20458;-84
2022/05/10 07:51:12;;;;;;;7.90;7.30;;;23.50;73.30;;;;;;4836460;29;20466;-81
2022/05/10 07:53:41;;;;;;;8.00;7.33;;;23.80;70.90;;;;;;4835589;29;20488;-82
2022/05/10 07:56:14;;;;;;;7.30;6.60;;;23.60;71.00;;;;;;4832849;29;20837;-83
2022/05/10 07:58:55;;;;;;;9.07;6.93;;;23.80;70.70;;;;;;4832843;29;20509;-84
2022/05/10 08:01:26;;;;;;;8.23;7.50;;;24.30;69.60;;;;;;4819283;29;20509;-85
2022/05/10 08:04:04;;;;;;;10.60;7.97;;;25.20;66.30;;;;;;4834533;29;20498;-87
2022/05/10 08:06:38;;;;;;;8.90;8.10;;;25.90;63.90;;;;;;4835080;29;20570;-85
2022/05/10 08:09:05;;;;;;;8.30;7.50;;;27.10;59.90;;;;;;4830652;29;20556;-82
2022/05/10 08:11:43;;;;;;;10.67;7.50;;;27.50;58.00;;;;;;4830775;29;20923;-84
2022/05/10 08:14:10;;;;;;;7.90;7.20;;;27.60;57.20;;;;;;4846633;29;20514;-82
2022/05/10 08:16:42;;;;;;;15.70;7.90;;;27.60;57.60;;;;;;4831525;29;20465;-87
2022/05/10 08:19:12;;;;;;;11.30;8.10;;;27.50;57.10;;;;;;4829452;29;20453;-85
2022/05/10 08:21:55;;;;;;;12.20;7.60;;;26.90;58.20;;;;;;4837072;29;20470;-85
2022/05/10 08:24:27;;;;;;;8.83;7.83;;;26.30;59.00;;;;;;4845568;29;21026;-85
2022/05/10 08:26:57;;;;;;;9.10;8.07;;;26.10;60.40;;;;;;4845495;29;20510;-84
2022/05/10 08:29:24;;;;;;;10.40;8.50;;;26.20;60.90;;;;;;4832116;29;20542;-82
2022/05/10 08:31:53;;;;;;;7.80;7.10;;;26.70;59.50;;;;;;4838791;29;20486;-84
2022/05/10 08:34:20;;;;;;;10.07;7.87;;;27.10;59.10;;;;;;4844102;29;20489;-87
2022/05/10 08:36:57;;;;;;;8.30;7.60;;;27.20;58.40;;;;;;4846455;29;20510;-86
2022/05/10 08:39:26;;;;;;;8.03;7.23;;;27.60;57.50;;;;;;4845750;29;20485;-86
2022/05/10 08:42:03;;;;;;;8.50;7.57;;;28.30;56.40;;;;;;4835600;29;20459;-84
2022/05/10 08:44:35;;;;;;;8.87;6.90;;;28.70;55.70;;;;;;4844148;29;20550;-85
2022/05/10 08:47:06;;;;;;;8.23;7.53;;;29.60;54.10;;;;;;4846824;29;20487;-83
2022/05/10 08:49:46;;;;;;;7.77;7.23;;;30.20;52.50;;;;;;4849057;29;20450;-88
2022/05/10 08:52:16;;;;;;;8.33;6.80;;;30.20;51.70;;;;;;4848755;29;20486;-85
2022/05/10 08:54:44;;;;;;;7.63;6.93;;;29.60;53.00;;;;;;4837870;29;20490;-87
2022/05/10 08:57:46;;;;;;;7.70;7.10;;;30.10;52.50;;;;;;4832368;29;20471;-85
2022/05/10 09:00:42;;;;;;;8.50;6.80;;;30.40;51.60;;;;;;4833041;29;20477;-84
2022/05/10 09:03:38;;;;;;;7.27;6.57;;;31.30;50.30;;;;;;4834347;29;20469;-85
2022/05/10 09:06:37;;;;;;;7.40;6.70;;;32.10;48.20;;;;;;4849035;29;20537;-84
2022/05/10 09:09:28;;;;;;;6.97;6.27;;;32.70;46.40;;;;;;4834481;29;20466;-86
2022/05/10 09:12:16;;;;;;;7.23;6.70;;;33.00;45.70;;;;;;4845857;29;20524;-85
2022/05/10 09:14:59;;;;;;;6.63;6.03;;;32.90;44.80;;;;;;4831116;29;20493;-86
2022/05/10 09:17:29;;;;;;;8.23;5.77;;;32.60;43.40;;;;;;4829916;29;20474;-82
2022/05/10 09:19:57;;;;;;;7.90;5.50;;;33.10;42.80;;;;;;4833191;29;20573;-87
2022/05/10 09:23:04;;;;;;;5.60;5.13;;;33.80;41.00;;;;;;4847779;29;20498;-83
2022/05/10 09:25:37;;;;;;;5.20;4.80;;;33.10;40.30;;;;;;4847451;29;20462;-84
2022/05/10 09:28:20;;;;;;;4.20;3.87;;;32.50;40.20;;;;;;4844876;29;20874;-84
2022/05/10 09:36:31;;;;;;;3.90;3.60;;;31.80;39.00;;;;;;4846932;29;20556;-82
2022/05/10 09:39:19;;;;;;;4.70;4.10;;;31.80;38.80;;;;;;4849079;29;20433;-86
2022/05/10 09:41:51;;;;;;;4.90;4.20;;;31.90;38.80;;;;;;4849345;29;20578;-83
2022/05/10 09:44:22;;;;;;;5.63;4.60;;;32.40;38.20;;;;;;4848731;29;20545;-87
2022/05/10 09:47:08;;;;;;;8.13;6.33;;;32.70;37.50;;;;;;4850533;29;20498;-85
2022/05/10 09:49:37;;;;;;;6.87;3.53;;;33.00;36.10;;;;;;4838046;29;20469;-84
2022/05/10 09:52:05;;;;;;;4.23;3.83;;;33.30;35.30;;;;;;4854143;29;20467;-83
2022/05/10 09:54:38;;;;;;;4.03;3.73;;;32.30;36.00;;;;;;4832841;29;20493;-83
2022/05/10 09:57:10;;;;;;;4.67;4.37;;;32.10;36.60;;;;;;4834716;29;20466;-85
2022/05/10 09:59:51;;;;;;;4.60;4.20;;;32.30;36.40;;;;;;4832955;29;20526;-85
2022/05/10 10:02:28;;;;;;;4.10;3.80;;;32.50;36.00;;;;;;4849199;29;20614;-84
2022/05/10 10:04:55;;;;;;;3.50;3.30;;;33.20;34.90;;;;;;4830585;29;20490;-85
2022/05/10 10:07:25;;;;;;;4.67;4.27;;;33.00;35.30;;;;;;4834857;29;20569;-85
2022/05/10 10:10:13;;;;;;;4.77;3.43;;;32.30;35.90;;;;;;4836569;29;20450;-83
2022/05/10 10:12:45;;;;;;;3.97;3.50;;;31.30;36.90;;;;;;4843801;29;20530;-83
2022/05/10 10:15:21;;;;;;;3.80;3.37;;;31.10;37.40;;;;;;4839685;29;20451;-82
2022/05/10 10:17:56;;;;;;;6.03;2.93;;;30.50;36.80;;;;;;4838198;29;20453;-84
2022/05/10 10:20:32;;;;;;;3.50;3.17;;;29.80;36.30;;;;;;4838716;29;20468;-85
2022/05/10 10:23:03;;;;;;;3.23;3.03;;;29.30;37.50;;;;;;4829803;29;20469;-84
2022/05/10 10:25:39;;;;;;;3.83;3.40;;;28.80;37.20;;;;;;4834003;29;20481;-85
2022/05/10 10:28:29;;;;;;;3.93;3.33;;;28.70;38.10;;;;;;4833850;29;21036;-84
2022/05/10 10:31:03;;;;;;;3.20;2.90;;;29.20;38.50;;;;;;4847559;29;20458;-84
2022/05/10 10:33:39;;;;;;;5.83;3.50;;;30.60;35.50;;;;;;4832567;29;20518;-84
2022/05/10 10:36:16;;;;;;;4.43;3.77;;;30.90;34.00;;;;;;4829249;29;20462;-86
2022/05/10 10:39:03;;;;;;;3.53;3.20;;;30.60;34.70;;;;;;4834000;29;20645;-84
2022/05/10 10:41:56;;;;;;;3.50;3.20;;;30.60;34.70;;;;;;4836011;29;20504;-84
2022/05/10 10:44:28;;;;;;;5.07;2.80;;;32.20;33.00;;;;;;4832714;29;21070;-86
2022/05/10 10:47:11;;;;;;;4.53;3.63;;;31.70;32.90;;;;;;4838900;29;20490;-84
2022/05/10 10:49:48;;;;;;;4.50;3.20;;;31.50;33.30;;;;;;4838914;29;21087;-86
2022/05/10 10:52:17;;;;;;;6.90;2.87;;;31.70;33.40;;;;;;4831632;29;20552;-83
2022/05/10 10:54:46;;;;;;;2.87;2.67;;;32.10;32.40;;;;;;4826945;29;20489;-83
2022/05/10 10:57:15;;;;;;;4.60;4.20;;;31.50;32.60;;;;;;4828794;29;20469;-84
2022/05/10 10:59:42;;;;;;;4.60;3.43;;;30.90;33.40;;;;;;4831680;29;20680;-83
2022/05/10 11:02:20;;;;;;;4.07;3.40;;;30.40;35.60;;;;;;4847718;29;20455;-84
2022/05/10 11:04:59;;;;;;;5.67;3.63;;;29.50;37.00;;;;;;4836253;29;20522;-83
2022/05/10 11:07:56;;;;;;;7.17;3.73;;;29.00;37.70;;;;;;4832920;29;20486;-86
2022/05/10 11:10:37;;;;;;;4.90;4.10;;;28.60;38.20;;;;;;4832090;29;21042;-86
2022/05/10 11:13:19;;;;;;;4.40;4.00;;;29.30;37.50;;;;;;4834625;29;20509;-83
2022/05/10 11:16:20;;;;;;;4.60;4.07;;;29.30;37.20;;;;;;4838302;29;20474;-85
2022/05/10 11:19:08;;;;;;;3.87;3.07;;;28.80;37.50;;;;;;4829753;29;20805;-84
2022/05/10 11:21:47;;;;;;;7.40;3.73;;;29.10;37.30;;;;;;4833072;29;20470;-81
2022/05/10 11:24:21;;;;;;;3.77;3.47;;;28.50;37.80;;;;;;4839484;29;20474;-82
2022/05/10 11:27:08;;;;;;;3.93;3.60;;;28.20;38.30;;;;;;4835284;29;20493;-83
2022/05/10 11:30:02;;;;;;;3.90;3.40;;;28.30;38.70;;;;;;4833161;29;20458;-83
2022/05/10 11:32:50;;;;;;;4.40;4.00;;;28.40;38.50;;;;;;4833725;29;20490;-85
2022/05/10 11:35:53;;;;;;;4.20;3.60;;;27.80;39.30;;;;;;4841457;29;20458;-85
2022/05/10 11:38:53;;;;;;;3.77;3.47;;;27.60;39.90;;;;;;4837627;29;20462;-84
2022/05/10 11:41:43;;;;;;;4.33;3.93;;;28.10;39.80;;;;;;4833776;29;20502;-83
2022/05/10 11:44:24;;;;;;;4.07;3.77;;;27.80;40.30;;;;;;4829634;29;20485;-82
2022/05/10 11:47:04;;;;;;;4.20;3.80;;;27.70;40.60;;;;;;4830002;29;20489;-84
2022/05/10 11:49:48;;;;;;;4.17;3.77;;;27.70;40.80;;;;;;4834755;29;20459;-83
2022/05/10 11:52:33;;;;;;;3.87;3.60;;;27.70;41.30;;;;;;4831258;29;20441;-84
2022/05/10 11:55:36;;;;;;;6.83;4.50;;;27.70;41.50;;;;;;4846060;29;20483;-84
2022/05/10 11:58:07;;;;;;;3.87;3.57;;;27.90;41.50;;;;;;4830321;29;20515;-84
2022/05/10 12:00:33;;;;;;;4.20;3.90;;;28.00;41.50;;;;;;4833674;29;20984;-85
2022/05/10 12:03:09;;;;;;;5.73;3.60;;;28.60;40.70;;;;;;4839025;29;20530;-86
2022/05/10 12:05:41;;;;;;;5.10;4.03;;;28.40;40.80;;;;;;4848331;29;20460;-85
2022/05/10 12:08:20;;;;;;;4.57;3.77;;;28.30;41.10;;;;;;4838246;29;20510;-86
2022/05/10 12:10:47;;;;;;;4.27;3.93;;;28.30;41.10;;;;;;4835416;29;20826;-83
2022/05/10 12:22:16;;;;;;;3.70;3.40;;;30.20;39.10;;;;;;4832835;29;21292;-85
2022/05/10 12:24:45;;;;;;;7.20;3.77;;;30.00;38.40;;;;;;4836241;29;20492;-83
2022/05/10 12:27:12;;;;;;;5.33;4.20;;;29.50;38.90;;;;;;4849697;29;20569;-83
2022/05/10 12:29:39;;;;;;;4.07;3.60;;;29.00;39.50;;;;;;4830578;29;20455;-83
2022/05/10 12:32:18;;;;;;;4.50;4.07;;;29.00;39.90;;;;;;4832742;29;20829;-81
2022/05/10 12:34:54;;;;;;;5.10;4.10;;;29.30;39.70;;;;;;4834724;29;20852;-85
2022/05/10 12:37:28;;;;;;;4.73;3.50;;;29.10;40.00;;;;;;4832666;29;20468;-86
2022/05/10 12:39:57;;;;;;;5.67;3.60;;;29.00;40.10;;;;;;4832691;29;21954;-87
2022/05/10 12:42:33;;;;;;;4.87;4.47;;;28.70;40.30;;;;;;4836434;29;20479;-84
2022/05/10 12:45:37;;;;;;;3.63;3.33;;;28.60;40.70;;;;;;4836753;29;20554;-83
2022/05/10 12:48:07;;;;;;;3.40;3.20;;;29.10;39.40;;;;;;4835586;29;20586;-84
2022/05/10 12:50:52;;;;;;;6.00;3.70;;;29.50;38.30;;;;;;4844733;29;20484;-84
2022/05/10 12:53:25;;;;;;;3.90;3.70;;;29.50;38.00;;;;;;4838174;29;21031;-80
2022/05/10 12:56:13;;;;;;;5.60;3.90;;;29.00;39.20;;;;;;4824936;29;20459;-81
2022/05/10 12:58:44;;;;;;;4.50;4.00;;;28.90;39.60;;;;;;4828994;29;20540;-82
2022/05/10 13:01:14;;;;;;;3.73;3.53;;;28.80;39.30;;;;;;4824735;29;20461;-83
2022/05/10 13:03:46;;;;;;;6.93;4.20;;;28.90;39.40;;;;;;4826983;29;20497;-81
2022/05/10 13:06:44;;;;;;;4.10;3.70;;;29.10;39.50;;;;;;4832889;29;20491;-80
2022/05/10 13:09:26;;;;;;;4.10;3.73;;;29.70;38.70;;;;;;4825454;29;20477;-82
2022/05/10 13:12:14;;;;;;;4.03;3.63;;;30.30;37.60;;;;;;4825696;29;20497;-82
2022/05/10 13:14:45;;;;;;;3.83;3.40;;;29.70;38.20;;;;;;4826887;29;21146;-81
2022/05/10 13:17:29;;;;;;;5.50;3.90;;;29.20;38.70;;;;;;4825715;29;20465;-80
2022/05/10 13:19:58;;;;;;;5.03;3.80;;;28.90;39.30;;;;;;4823954;29;20454;-82
2022/05/10 13:22:26;;;;;;;3.80;3.50;;;28.70;39.80;;;;;;4838893;29;20498;-80
2022/05/10 13:24:58;;;;;;;4.23;3.93;;;28.70;39.30;;;;;;4827137;29;20481;-82
2022/05/10 13:27:34;;;;;;;5.20;3.80;;;29.40;38.80;;;;;;4831223;29;21772;-83
2022/05/10 13:30:12;;;;;;;5.83;4.10;;;28.90;39.00;;;;;;4822353;29;21351;-82
2022/05/10 13:32:44;;;;;;;7.27;4.60;;;28.70;39.80;;;;;;4824539;29;21010;-82
2022/05/10 13:35:19;;;;;;;8.57;3.73;;;28.60;40.20;;;;;;4824484;29;20546;-80
2022/05/10 13:38:18;;;;;;;4.53;4.10;;;28.50;39.80;;;;;;4828190;29;20849;-82
2022/05/10 13:40:53;;;;;;;4.27;3.97;;;28.40;40.30;;;;;;4823737;29;20478;-83